Time;durP1;ratioP1;P1;durP2;ratioP2;P2;SDS_P1;SDS_P2;PMS_P1;PMS_P2;Temp;Humidity;BMP_temperature;BMP_pressure;BME280_temperature;BME280_humidity;BME280_pressure;Samples;Min_cycle;Max_cycle;Signal;HPM_P1;HPM_P2
2023/04/18 00:02:17;;;;;;;17.33;12.43;;;;;;;7.93;100.00;-18241.56;5000494;28;20045;-85
2023/04/18 00:04:46;;;;;;;16.17;11.93;;;;;;;7.89;100.00;-18240.47;4986889;28;20089;-84
2023/04/18 00:07:14;;;;;;;17.58;12.63;;;;;;;7.89;100.00;-18240.59;4985374;28;20050;-85
2023/04/18 00:09:42;;;;;;;14.55;11.30;;;;;;;7.77;100.00;-18237.31;5000098;28;20052;-84
2023/04/18 00:12:09;;;;;;;18.15;13.25;;;;;;;7.72;100.00;-18235.94;4984593;28;20117;-85
2023/04/18 00:14:36;;;;;;;18.20;12.75;;;;;;;7.73;100.00;-18236.06;4984577;28;20058;-84
2023/04/18 00:17:02;;;;;;;15.15;11.93;;;;;;;7.69;100.00;-18235.09;4984919;28;20073;-84
2023/04/18 00:19:27;;;;;;;16.58;11.63;;;;;;;7.67;100.00;-18234.56;4984082;28;20497;-84
2023/04/18 00:21:53;;;;;;;16.15;12.45;;;;;;;7.68;100.00;-18234.97;4985339;28;20468;-84
2023/04/18 00:24:18;;;;;;;15.38;11.82;;;;;;;7.69;100.00;-18235.09;4982866;28;20547;-84
2023/04/18 00:26:44;;;;;;;17.30;12.40;;;;;;;7.62;100.00;-18233.16;4985835;28;20042;-84
2023/04/18 00:29:09;;;;;;;18.05;12.57;;;;;;;7.62;100.00;-18233.31;4985648;28;20038;-85
2023/04/18 00:31:35;;;;;;;17.48;12.48;;;;;;;7.51;100.00;-18230.13;5000410;28;20061;-84
2023/04/18 00:34:00;;;;;;;17.30;12.38;;;;;;;7.44;100.00;-18228.34;4986445;28;20046;-85
2023/04/18 00:36:26;;;;;;;16.52;11.70;;;;;;;7.43;100.00;-18228.06;4986575;28;20045;-84
2023/04/18 00:38:52;;;;;;;18.20;12.77;;;;;;;7.46;100.00;-18229.03;4986256;28;20041;-84
2023/04/18 00:41:18;;;;;;;16.17;13.02;;;;;;;7.43;100.00;-18228.22;4983935;28;20465;-84
2023/04/18 00:43:44;;;;;;;17.50;12.50;;;;;;;7.34;100.00;-18225.72;4984247;28;20132;-84
2023/04/18 00:46:09;;;;;;;18.33;12.30;;;;;;;7.37;100.00;-18226.56;4983161;28;20129;-85
2023/04/18 00:48:35;;;;;;;19.10;13.23;;;;;;;7.41;100.00;-18227.66;4984412;28;20057;-84
2023/04/18 00:51:01;;;;;;;19.35;13.43;;;;;;;7.24;100.00;-18223.13;4984449;28;20105;-85
2023/04/18 00:53:27;;;;;;;18.05;13.23;;;;;;;7.26;100.00;-18223.53;4983228;28;20046;-84
2023/04/18 00:55:52;;;;;;;17.98;12.80;;;;;;;7.17;100.00;-18221.06;4987319;28;20042;-85
2023/04/18 00:58:19;;;;;;;17.60;12.50;;;;;;;7.07;100.00;-18218.44;4987565;28;20048;-84
2023/04/18 01:00:45;;;;;;;18.42;13.20;;;;;;;6.98;100.00;-18216.09;4987107;28;20058;-85
2023/04/18 01:03:13;;;;;;;18.42;13.57;;;;;;;6.91;100.00;-18214.16;4987379;28;20050;-84
2023/04/18 01:05:38;;;;;;;21.88;13.68;;;;;;;6.91;100.00;-18214.16;4988815;28;20042;-84
2023/04/18 01:08:03;;;;;;;17.35;12.93;;;;;;;6.89;100.00;-18213.59;4987548;28;20046;-85
2023/04/18 01:10:29;;;;;;;18.00;12.63;;;;;;;6.83;100.00;-18211.94;4986193;28;20104;-84
2023/04/18 01:13:15;;;;;;;18.48;13.10;;;;;;;6.78;100.00;-18210.72;4987541;28;20420;-84
2023/04/18 01:15:48;;;;;;;16.13;12.23;;;;;;;6.83;100.00;-18211.94;4999999;28;20441;-85
2023/04/18 01:18:17;;;;;;;17.42;12.60;;;;;;;6.81;100.00;-18211.41;4984719;28;20042;-84
2023/04/18 01:20:46;;;;;;;18.50;13.25;;;;;;;6.78;100.00;-18210.56;4986945;28;20659;-84
2023/04/18 01:23:11;;;;;;;17.27;13.60;;;;;;;6.75;100.00;-18209.88;4988696;28;20061;-85
2023/04/18 01:25:37;;;;;;;18.08;12.93;;;;;;;6.64;100.00;-18206.72;4987261;28;20047;-84
2023/04/18 01:28:04;;;;;;;16.75;12.93;;;;;;;6.65;100.00;-18207.13;4988551;28;20048;-84
2023/04/18 01:30:29;;;;;;;15.85;12.30;;;;;;;6.70;100.00;-18208.38;4986235;28;20046;-85
2023/04/18 01:32:54;;;;;;;16.15;12.77;;;;;;;6.69;100.00;-18208.09;4988003;28;20163;-84
2023/04/18 01:35:20;;;;;;;19.13;12.90;;;;;;;6.61;100.00;-18205.88;4987361;28;20050;-84
2023/04/18 01:37:45;;;;;;;15.63;12.85;;;;;;;6.62;100.00;-18206.16;4988121;28;20054;-84
2023/04/18 01:40:11;;;;;;;17.17;12.70;;;;;;;6.54;100.00;-18204.22;4987110;28;20588;-85
2023/04/18 01:42:36;;;;;;;19.63;13.60;;;;;;;6.57;100.00;-18204.94;5003066;28;20053;-85
2023/04/18 01:45:02;;;;;;;16.17;12.80;;;;;;;6.51;100.00;-18203.41;4987765;28;20050;-85
2023/04/18 01:47:28;;;;;;;17.27;12.38;;;;;;;6.48;100.00;-18202.59;4986417;28;20053;-84
2023/04/18 01:49:53;;;;;;;17.00;12.52;;;;;;;6.34;100.00;-18198.72;4988257;28;20050;-85
2023/04/18 01:52:19;;;;;;;18.88;13.63;;;;;;;6.33;100.00;-18198.44;4987231;28;20042;-85
2023/04/18 01:54:44;;;;;;;16.52;12.90;;;;;;;6.37;100.00;-18199.53;4986376;28;20757;-85
2023/04/18 01:57:09;;;;;;;18.45;13.38;;;;;;;6.30;100.00;-18197.63;4990397;28;20038;-85
2023/04/18 01:59:35;;;;;;;18.00;13.25;;;;;;;6.40;100.00;-18200.38;4986404;28;20076;-84
2023/04/18 02:02:00;;;;;;;21.30;14.30;;;;;;;6.42;100.00;-18200.94;4987748;28;20035;-85
2023/04/18 02:04:25;;;;;;;19.38;13.07;;;;;;;6.61;100.00;-18205.88;4986584;28;20065;-85
2023/04/18 02:06:51;;;;;;;16.17;12.88;;;;;;;6.50;100.00;-18203.13;4984979;28;20073;-85
2023/04/18 02:09:17;;;;;;;18.15;12.70;;;;;;;6.55;100.00;-18204.50;4987589;28;20038;-85
2023/04/18 02:11:42;;;;;;;18.88;14.10;;;;;;;6.69;100.00;-18208.09;4987137;28;20038;-84
2023/04/18 02:14:07;;;;;;;16.90;12.98;;;;;;;6.53;100.00;-18203.81;5002182;28;20066;-85
2023/04/18 02:16:33;;;;;;;17.00;12.32;;;;;;;6.55;100.00;-18204.50;4985988;28;20125;-84
2023/04/18 02:19:00;;;;;;;17.13;11.90;;;;;;;6.55;100.00;-18204.50;4987925;28;20050;-84
2023/04/18 02:21:26;;;;;;;19.50;13.55;;;;;;;6.61;100.00;-18205.88;5001463;28;20153;-84
2023/04/18 02:23:51;;;;;;;20.55;13.80;;;;;;;6.63;100.00;-18206.44;4984665;28;20552;-85
2023/04/18 02:26:16;;;;;;;15.68;11.68;;;;;;;6.61;100.00;-18206.03;5008552;28;20046;-84
2023/04/18 02:28:42;;;;;;;18.02;12.85;;;;;;;6.62;100.00;-18206.16;5011713;28;20038;-84
2023/04/18 02:31:13;;;;;;;16.38;12.30;;;;;;;6.65;100.00;-18207.00;5010356;28;20050;-84
2023/04/18 02:33:39;;;;;;;16.58;11.90;;;;;;;6.71;100.00;-18208.66;5012215;28;20069;-84
2023/04/18 02:36:05;;;;;;;16.02;12.02;;;;;;;6.68;100.00;-18207.97;4990896;28;20042;-85
2023/04/18 02:38:31;;;;;;;16.95;11.75;;;;;;;6.63;100.00;-18206.44;4987639;28;20539;-84
2023/04/18 02:40:56;;;;;;;16.80;12.25;;;;;;;6.67;100.00;-18207.53;4987972;28;20046;-84
2023/04/18 02:43:21;;;;;;;17.20;12.57;;;;;;;6.59;100.00;-18205.34;4999467;28;20042;-84
2023/04/18 02:45:47;;;;;;;15.40;12.38;;;;;;;6.66;100.00;-18207.41;4997324;28;20073;-85
2023/04/18 02:48:12;;;;;;;18.20;12.52;;;;;;;6.61;100.00;-18205.88;4997824;28;20133;-85
2023/04/18 02:50:37;;;;;;;15.68;11.88;;;;;;;6.62;100.00;-18206.16;4991011;28;20645;-85
2023/04/18 02:53:03;;;;;;;14.63;11.93;;;;;;;6.57;100.00;-18204.78;4987009;28;20038;-85
2023/04/18 02:55:28;;;;;;;19.92;12.57;;;;;;;6.52;100.00;-18203.69;4986239;28;20124;-85
2023/04/18 02:57:54;;;;;;;17.77;12.27;;;;;;;6.50;100.00;-18203.13;4987099;28;20186;-85
2023/04/18 03:00:20;;;;;;;17.55;12.15;;;;;;;6.50;100.00;-18203.00;4986988;28;20043;-85
2023/04/18 03:02:45;;;;;;;15.80;12.40;;;;;;;6.42;100.00;-18200.78;4987087;28;20340;-85
2023/04/18 03:05:10;;;;;;;14.75;11.35;;;;;;;6.49;100.00;-18202.84;4970323;28;20038;-85
2023/04/18 03:07:36;;;;;;;16.00;11.60;;;;;;;6.41;100.00;-18200.66;4987549;28;20463;-85
2023/04/18 03:10:01;;;;;;;17.23;12.38;;;;;;;6.41;100.00;-18200.66;4985577;28;20053;-85
2023/04/18 03:12:27;;;;;;;17.20;12.25;;;;;;;6.45;100.00;-18201.63;4985450;28;20045;-85
2023/04/18 03:14:52;;;;;;;16.58;12.45;;;;;;;6.37;100.00;-18199.41;4985095;28;20038;-85
2023/04/18 03:17:17;;;;;;;14.98;11.60;;;;;;;6.38;100.00;-18199.81;4985755;28;20098;-85
2023/04/18 03:19:44;;;;;;;16.67;12.13;;;;;;;6.35;100.00;-18198.84;4986015;28;20037;-84
2023/04/18 03:22:09;;;;;;;15.85;11.93;;;;;;;6.33;100.00;-18198.44;4986301;28;20042;-85
2023/04/18 03:24:34;;;;;;;17.98;12.20;;;;;;;6.41;100.00;-18200.66;4985006;28;20054;-85
2023/04/18 03:27:00;;;;;;;16.65;12.52;;;;;;;6.29;100.00;-18197.34;4985281;28;20129;-85
2023/04/18 03:29:25;;;;;;;15.88;11.80;;;;;;;6.32;100.00;-18198.31;4984268;28;20062;-84
2023/04/18 03:31:50;;;;;;;19.15;12.60;;;;;;;6.31;100.00;-18197.91;5001534;28;20054;-85
2023/04/18 03:34:16;;;;;;;18.20;13.00;;;;;;;6.28;100.00;-18197.06;4986583;28;20046;-85
2023/04/18 03:36:41;;;;;;;16.90;12.57;;;;;;;6.38;100.00;-18199.69;5001388;28;20044;-85
2023/04/18 03:39:06;;;;;;;14.88;12.20;;;;;;;6.38;100.00;-18199.81;4985299;28;20575;-85
2023/04/18 03:41:32;;;;;;;17.05;12.45;;;;;;;6.38;100.00;-18199.81;4985534;28;20503;-85
2023/04/18 03:43:57;;;;;;;16.73;12.00;;;;;;;6.23;100.00;-18195.69;4984887;28;20080;-85
2023/04/18 03:46:23;;;;;;;20.67;13.10;;;;;;;6.20;100.00;-18195.00;4984876;28;20166;-85
2023/04/18 03:48:48;;;;;;;16.13;12.85;;;;;;;6.15;100.00;-18193.63;4985044;28;20054;-85
2023/04/18 03:51:14;;;;;;;16.75;11.45;;;;;;;6.14;100.00;-18193.19;4985337;28;20070;-84
2023/04/18 03:53:39;;;;;;;17.73;12.43;;;;;;;6.22;100.00;-18195.41;4985614;28;20042;-84
2023/04/18 03:56:05;;;;;;;16.77;12.18;;;;;;;6.19;100.00;-18194.72;4986233;28;20042;-84
2023/04/18 03:58:31;;;;;;;16.52;12.23;;;;;;;6.18;100.00;-18194.31;4987357;28;20065;-84
2023/04/18 04:00:56;;;;;;;18.10;12.82;;;;;;;6.13;100.00;-18192.94;4987662;28;20031;-85
2023/04/18 04:03:21;;;;;;;16.85;12.88;;;;;;;6.11;100.00;-18192.50;4986943;28;20504;-84
2023/04/18 04:05:47;;;;;;;18.63;13.07;;;;;;;6.09;100.00;-18192.09;4986877;28;20517;-84
2023/04/18 04:08:15;;;;;;;16.17;12.23;;;;;;;6.15;100.00;-18193.63;4991322;28;20046;-85
2023/04/18 04:10:40;;;;;;;16.25;12.05;;;;;;;6.13;100.00;-18193.06;4983905;28;20061;-85
2023/04/18 04:13:05;;;;;;;19.58;13.07;;;;;;;6.12;100.00;-18192.66;5000489;28;20532;-85
2023/04/18 04:15:31;;;;;;;16.20;12.40;;;;;;;6.08;100.00;-18191.69;4984919;28;20046;-85
2023/04/18 04:17:56;;;;;;;18.25;12.48;;;;;;;5.98;100.00;-18189.06;4986952;28;20058;-85
2023/04/18 04:20:22;;;;;;;19.15;12.88;;;;;;;6.02;100.00;-18190.03;4982146;28;20034;-85
2023/04/18 04:22:48;;;;;;;17.52;12.63;;;;;;;6.03;100.00;-18190.44;4983120;28;20042;-85
2023/04/18 04:25:16;;;;;;;18.63;12.60;;;;;;;6.05;100.00;-18190.84;4984174;28;20038;-85
2023/04/18 04:27:42;;;;;;;17.40;12.60;;;;;;;6.14;100.00;-18193.19;4984956;28;20124;-85
2023/04/18 04:30:08;;;;;;;17.30;12.48;;;;;;;6.16;100.00;-18193.91;4984649;28;20066;-85
2023/04/18 04:32:34;;;;;;;16.55;12.27;;;;;;;6.21;100.00;-18195.28;4984341;28;20069;-84
2023/04/18 04:34:59;;;;;;;18.02;12.90;;;;;;;6.17;100.00;-18194.03;4984666;28;20058;-84
2023/04/18 04:37:26;;;;;;;16.45;12.55;;;;;;;6.23;100.00;-18195.69;4988616;28;20155;-84
2023/04/18 04:39:51;;;;;;;16.33;12.43;;;;;;;6.29;100.00;-18197.34;5000524;28;20045;-84
2023/04/18 04:42:18;;;;;;;17.25;12.15;;;;;;;6.31;100.00;-18198.03;4985363;28;20058;-84
2023/04/18 04:44:43;;;;;;;16.55;12.02;;;;;;;6.29;100.00;-18197.47;4984410;28;20054;-84
2023/04/18 04:47:09;;;;;;;14.93;11.55;;;;;;;6.46;100.00;-18202.03;4983820;28;20038;-84
2023/04/18 04:49:34;;;;;;;14.85;11.80;;;;;;;6.49;100.00;-18202.84;4984331;28;20074;-84
2023/04/18 04:52:01;;;;;;;16.05;10.80;;;;;;;6.57;100.00;-18204.78;4982749;28;20042;-84
2023/04/18 04:54:26;;;;;;;14.13;10.30;;;;;;;6.69;100.00;-18208.09;4982015;28;20460;-83
2023/04/18 04:56:52;;;;;;;13.80;9.68;;;;;;;6.72;100.00;-18208.91;4984507;28;20042;-84
2023/04/18 04:59:17;;;;;;;12.70;8.98;;;;;;;6.85;100.00;-18212.38;4984967;28;20046;-84
2023/04/18 05:01:43;;;;;;;10.73;8.52;;;;;;;6.92;100.00;-18214.44;4981182;28;20046;-84
2023/04/18 05:04:08;;;;;;;11.82;8.75;;;;;;;6.97;100.00;-18215.81;4981163;28;20043;-84
2023/04/18 05:06:33;;;;;;;11.13;8.20;;;;;;;7.10;100.00;-18219.13;4982651;28;20097;-84
2023/04/18 05:08:59;;;;;;;11.60;7.70;;;;;;;7.11;100.00;-18219.41;4983252;28;20107;-85
2023/04/18 05:11:25;;;;;;;9.40;6.95;;;;;;;7.20;100.00;-18221.88;4996966;28;20441;-85
2023/04/18 05:13:51;;;;;;;10.85;6.97;;;;;;;7.32;100.00;-18225.19;4999833;28;20137;-84
2023/04/18 05:16:16;;;;;;;10.80;7.22;;;;;;;7.38;100.00;-18226.69;4983761;28;20042;-84
2023/04/18 05:18:42;;;;;;;8.25;6.43;;;;;;;7.36;100.00;-18226.16;4983917;28;20072;-84
2023/04/18 05:21:07;;;;;;;10.57;7.28;;;;;;;7.41;100.00;-18227.53;4985101;28;20038;-85
2023/04/18 05:23:36;;;;;;;9.35;6.70;;;;;;;7.46;100.00;-18228.91;4997559;28;20038;-85
2023/04/18 05:26:02;;;;;;;10.63;7.70;;;;;;;7.57;100.00;-18231.94;4986860;28;20050;-85
2023/04/18 05:28:28;;;;;;;9.23;7.28;;;;;;;7.35;100.00;-18225.88;4978448;28;20112;-85
2023/04/18 05:30:59;;;;;;;11.32;6.70;;;;;;;7.35;100.00;-18226.00;5001158;28;20025;-85
2023/04/18 05:33:31;;;;;;;10.25;7.53;;;;;;;7.41;100.00;-18227.66;5022332;28;20237;-84
2023/04/18 05:35:57;;;;;;;11.23;7.47;;;;;;;7.40;100.00;-18227.38;5008437;28;20045;-84
2023/04/18 05:38:25;;;;;;;10.30;6.70;;;;;;;7.46;100.00;-18229.03;5006163;28;20054;-84
2023/04/18 05:40:51;;;;;;;14.93;6.88;;;;;;;7.47;100.00;-18229.31;5000961;28;20381;-84
2023/04/18 05:43:19;;;;;;;10.43;7.53;;;;;;;7.55;100.00;-18231.25;5005048;28;20052;-84
2023/04/18 05:45:45;;;;;;;12.77;7.67;;;;;;;7.50;100.00;-18229.88;4974058;28;20034;-84
2023/04/18 05:48:10;;;;;;;11.15;7.47;;;;;;;7.56;100.00;-18231.53;5005491;28;20049;-85
2023/04/18 05:50:36;;;;;;;9.63;6.60;;;;;;;7.59;100.00;-18232.47;5007951;28;20193;-84
2023/04/18 05:53:01;;;;;;;11.02;8.13;;;;;;;7.66;100.00;-18234.41;5007993;28;20042;-84
2023/04/18 05:55:35;;;;;;;10.77;7.63;;;;;;;7.55;100.00;-18231.38;5005560;28;20408;-85
2023/04/18 05:58:04;;;;;;;9.55;6.80;;;;;;;7.75;100.00;-18236.75;4988956;28;20081;-85
2023/04/18 06:00:29;;;;;;;10.13;7.45;;;;;;;7.64;100.00;-18233.84;4981825;28;20248;-84
2023/04/18 06:03:01;;;;;;;11.10;7.50;;;;;;;7.68;100.00;-18234.81;5002782;28;20134;-84
2023/04/18 06:05:26;;;;;;;12.98;7.57;;;;;;;7.73;100.00;-18236.19;4981499;28;20108;-84
2023/04/18 06:07:52;;;;;;;10.68;7.28;;;;;;;7.87;100.00;-18239.91;4991582;28;20516;-85
2023/04/18 06:10:17;;;;;;;9.75;7.18;;;;;;;8.00;100.00;-18243.50;5005035;28;20030;-84
2023/04/18 06:12:43;;;;;;;10.50;7.65;;;;;;;8.09;100.00;-18245.97;4990627;28;20035;-85
2023/04/18 06:15:11;;;;;;;9.60;7.28;;;;;;;8.18;100.00;-18248.31;4990391;28;20065;-84
2023/04/18 06:17:39;;;;;;;10.35;6.72;;;;;;;8.26;100.00;-18250.38;4978969;28;20038;-84
2023/04/18 06:20:08;;;;;;;10.98;7.60;;;;;;;8.22;100.00;-18249.28;4991715;28;20378;-84
2023/04/18 06:22:33;;;;;;;10.20;7.50;;;;;;;8.18;100.00;-18248.19;4987420;28;20046;-84
2023/04/18 06:24:59;;;;;;;10.80;6.95;;;;;;;8.15;100.00;-18247.50;4991193;28;20108;-84
2023/04/18 06:27:27;;;;;;;11.90;7.20;;;;;;;8.17;100.00;-18247.91;4988131;28;20041;-84
2023/04/18 06:29:53;;;;;;;11.83;7.60;;;;;;;8.23;100.00;-18249.69;4980156;28;20109;-85
2023/04/18 06:32:18;;;;;;;11.02;7.18;;;;;;;8.22;100.00;-18249.41;4968615;28;20089;-84
2023/04/18 06:34:43;;;;;;;10.38;7.03;;;;;;;8.32;100.00;-18252.03;4988555;28;20081;-84
2023/04/18 06:37:10;;;;;;;10.93;7.30;;;;;;;8.35;100.00;-18252.88;4989194;28;20043;-84
2023/04/18 06:39:35;;;;;;;11.23;7.57;;;;;;;8.32;100.00;-18252.19;4995595;28;20292;-84
2023/04/18 06:42:01;;;;;;;10.70;7.60;;;;;;;8.46;100.00;-18255.75;4958293;28;20042;-85
2023/04/18 06:44:26;;;;;;;11.57;8.15;;;;;;;8.47;100.00;-18256.16;4986819;28;20465;-85
2023/04/18 06:46:52;;;;;;;10.70;8.45;;;;;;;8.54;100.00;-18258.09;4971648;28;20046;-85
2023/04/18 06:49:17;;;;;;;10.48;7.68;;;;;;;8.48;100.00;-18256.44;4986168;28;20125;-84
2023/04/18 06:51:42;;;;;;;12.07;8.00;;;;;;;8.48;100.00;-18256.31;4954023;28;20509;-85
2023/04/18 06:54:08;;;;;;;11.50;7.80;;;;;;;8.46;100.00;-18255.75;4969560;28;20430;-84
2023/04/18 06:56:33;;;;;;;10.93;7.65;;;;;;;8.33;100.00;-18252.31;4989835;28;20046;-84
2023/04/18 06:58:59;;;;;;;11.80;7.70;;;;;;;8.29;100.00;-18251.22;4990364;28;20592;-84
2023/04/18 07:01:24;;;;;;;12.45;8.45;;;;;;;8.32;100.00;-18252.19;4990329;28;20045;-84
2023/04/18 07:03:49;;;;;;;11.93;7.80;;;;;;;8.30;100.00;-18251.63;5002367;28;20053;-84
2023/04/18 07:06:15;;;;;;;13.10;8.73;;;;;;;8.25;100.00;-18250.25;4995181;28;20042;-84
2023/04/18 07:08:40;;;;;;;12.13;9.15;;;;;;;8.18;100.00;-18248.31;4997436;28;20042;-84
2023/04/18 07:11:06;;;;;;;13.07;9.18;;;;;;;8.14;100.00;-18247.22;4997304;28;20104;-84
2023/04/18 07:13:31;;;;;;;12.57;8.63;;;;;;;8.19;100.00;-18248.59;5002428;28;20493;-84
2023/04/18 07:15:56;;;;;;;13.38;9.60;;;;;;;8.13;100.00;-18247.09;5009331;28;20039;-84
2023/04/18 07:18:22;;;;;;;12.68;9.63;;;;;;;8.17;100.00;-18248.03;5002967;28;20454;-85
2023/04/18 07:20:47;;;;;;;12.10;9.00;;;;;;;8.19;100.00;-18248.59;4990799;28;20058;-84
2023/04/18 07:23:12;;;;;;;12.38;8.38;;;;;;;8.27;100.00;-18250.78;4990381;28;20049;-84
2023/04/18 07:25:38;;;;;;;12.48;8.77;;;;;;;8.29;100.00;-18251.22;4990933;28;20043;-85
2023/04/18 07:28:03;;;;;;;10.82;7.90;;;;;;;8.35;100.00;-18252.88;4989438;28;20102;-84
2023/04/18 07:30:29;;;;;;;11.27;8.60;;;;;;;8.32;100.00;-18252.19;4988302;28;20559;-85
2023/04/18 07:32:54;;;;;;;14.40;8.60;;;;;;;8.38;100.00;-18253.56;4989984;28;20417;-84
2023/04/18 07:35:20;;;;;;;10.35;7.90;;;;;;;8.41;100.00;-18254.38;4989693;28;20038;-85
2023/04/18 07:37:45;;;;;;;10.80;7.88;;;;;;;8.45;100.00;-18255.63;4989401;28;20058;-84
2023/04/18 07:40:11;;;;;;;10.98;7.95;;;;;;;8.48;100.00;-18256.44;4988987;28;20039;-84
2023/04/18 07:42:37;;;;;;;11.15;7.38;;;;;;;8.56;100.00;-18258.66;5004997;28;20489;-85
2023/04/18 07:45:02;;;;;;;13.35;8.80;;;;;;;8.53;100.00;-18257.69;4990363;28;20050;-85
2023/04/18 07:47:28;;;;;;;11.27;7.25;;;;;;;8.61;100.00;-18259.75;4989470;28;20073;-84
2023/04/18 07:49:53;;;;;;;12.43;8.45;;;;;;;8.62;100.00;-18260.16;4989523;28;20074;-85
2023/04/18 07:52:19;;;;;;;10.40;7.45;;;;;;;8.59;100.00;-18259.47;4988909;28;20038;-84
2023/04/18 07:54:44;;;;;;;11.30;8.55;;;;;;;8.54;100.00;-18257.97;5004634;28;20035;-84
2023/04/18 07:57:10;;;;;;;11.32;8.23;;;;;;;8.46;100.00;-18255.75;5004498;28;20464;-85
2023/04/18 07:59:35;;;;;;;11.23;7.95;;;;;;;8.49;100.00;-18256.59;4988841;28;20572;-85
2023/04/18 08:02:01;;;;;;;11.88;8.40;;;;;;;8.48;100.00;-18256.44;5004559;28;20045;-85
2023/04/18 08:04:26;;;;;;;12.95;9.15;;;;;;;8.54;100.00;-18257.97;4988245;28;20472;-85
2023/04/18 08:06:51;;;;;;;11.35;8.05;;;;;;;8.55;100.00;-18258.38;4988991;28;20035;-84
2023/04/18 08:09:19;;;;;;;11.23;8.55;;;;;;;8.51;100.00;-18257.13;4989786;28;20042;-84
2023/04/18 08:11:45;;;;;;;12.65;8.85;;;;;;;8.65;100.00;-18260.84;4989480;28;20064;-85
2023/04/18 08:14:10;;;;;;;11.40;8.15;;;;;;;8.65;100.00;-18260.84;4984431;28;20058;-84
2023/04/18 08:16:36;;;;;;;11.23;7.95;;;;;;;8.70;100.00;-18262.38;4984682;28;20467;-84
2023/04/18 08:19:02;;;;;;;12.35;8.80;;;;;;;8.73;100.00;-18263.19;4983748;28;20045;-84
2023/04/18 08:21:27;;;;;;;13.20;8.38;;;;;;;8.82;100.00;-18265.53;4998725;28;20046;-85
2023/04/18 08:23:52;;;;;;;11.50;8.13;;;;;;;8.74;100.00;-18263.47;4987408;28;20034;-85
2023/04/18 08:26:18;;;;;;;13.95;9.30;;;;;;;8.85;100.00;-18266.22;4985277;28;20046;-85
2023/04/18 08:28:44;;;;;;;13.45;8.75;;;;;;;8.90;100.00;-18267.59;4985909;28;20053;-85
2023/04/18 08:31:14;;;;;;;11.15;8.50;;;;;;;8.96;100.00;-18269.25;4985740;28;20046;-85
2023/04/18 08:33:40;;;;;;;13.38;8.43;;;;;;;9.12;100.00;-18273.66;4985514;28;20073;-85
2023/04/18 08:36:05;;;;;;;10.93;7.85;;;;;;;9.11;100.00;-18273.38;4984741;28;20072;-84
2023/04/18 08:38:31;;;;;;;11.68;8.18;;;;;;;9.08;100.00;-18272.53;4995273;23;20074;-82
2023/04/18 08:40:56;;;;;;;12.15;8.15;;;;;;;9.14;100.00;-18274.06;4952527;28;20352;-81
2023/04/18 08:43:23;;;;;;;11.85;7.72;;;;;;;9.17;100.00;-18275.03;4945181;28;20067;-81
2023/04/18 08:45:48;;;;;;;14.60;9.52;;;;;;;9.15;100.00;-18274.34;4949557;28;20046;-81
2023/04/18 08:48:15;;;;;;;12.43;9.13;;;;;;;9.05;100.00;-18271.72;4946567;28;20043;-81
2023/04/18 08:50:40;;;;;;;12.13;9.38;;;;;;;9.10;100.00;-18273.09;4964671;28;20051;-81
2023/04/18 08:53:07;;;;;;;12.07;8.77;;;;;;;9.11;100.00;-18273.38;4950355;28;20043;-81
2023/04/18 08:55:32;;;;;;;13.43;9.45;;;;;;;9.18;100.00;-18275.16;4949914;28;20384;-81
2023/04/18 08:57:58;;;;;;;13.32;8.85;;;;;;;9.25;100.00;-18277.22;4950502;28;20040;-81
2023/04/18 09:00:24;;;;;;;14.32;10.20;;;;;;;9.29;100.00;-18278.06;4950343;28;20031;-82
2023/04/18 09:02:55;;;;;;;14.65;9.73;;;;;;;9.38;100.00;-18280.53;4944041;28;20047;-81
2023/04/18 09:05:22;;;;;;;11.88;9.05;;;;;;;9.43;100.00;-18281.91;4948847;28;20035;-81
2023/04/18 09:07:49;;;;;;;14.20;9.40;;;;;;;9.46;100.00;-18282.88;4950549;28;20471;-81
2023/04/18 09:10:25;;;;;;;13.23;9.52;;;;;;;9.51;100.00;-18284.09;4951627;28;20137;-81
2023/04/18 09:12:50;;;;;;;13.10;9.75;;;;;;;9.49;100.00;-18283.69;4948264;28;20039;-81
2023/04/18 09:15:19;;;;;;;14.85;9.48;;;;;;;9.54;100.00;-18284.78;4951022;28;20106;-82
2023/04/18 09:17:49;;;;;;;13.68;9.65;;;;;;;9.59;100.00;-18286.31;4949792;28;20050;-81
2023/04/18 09:20:39;;;;;;;12.90;9.57;;;;;;;9.61;100.00;-18286.84;4953074;28;20049;-81
2023/04/18 09:23:10;;;;;;;13.38;9.50;;;;;;;9.59;100.00;-18286.31;4951619;28;20134;-81
2023/04/18 09:25:36;;;;;;;12.57;8.60;;;;;;;9.55;100.00;-18285.19;4953686;28;20510;-81
2023/04/18 09:28:22;;;;;;;13.68;9.70;;;;;;;9.63;100.00;-18287.41;4956775;28;20094;-81
2023/04/18 09:30:50;;;;;;;13.60;9.95;;;;;;;9.65;100.00;-18287.81;4967139;28;20051;-81
2023/04/18 09:33:16;;;;;;;14.38;9.90;;;;;;;9.70;100.00;-18289.19;4955065;28;20050;-84
2023/04/18 09:35:41;;;;;;;13.13;9.55;;;;;;;9.76;100.00;-18290.69;4953886;28;20047;-82
2023/04/18 09:38:07;;;;;;;13.93;9.57;;;;;;;9.77;100.00;-18291.13;4949554;28;20044;-82
2023/04/18 09:40:32;;;;;;;13.48;9.93;;;;;;;9.80;100.00;-18291.94;4954019;28;20458;-82
2023/04/18 09:42:58;;;;;;;13.90;9.50;;;;;;;9.83;100.00;-18292.75;4969250;28;20155;-83
2023/04/18 09:45:24;;;;;;;14.40;10.70;;;;;;;9.90;100.00;-18294.56;4953681;28;20047;-82
2023/04/18 09:47:51;;;;;;;15.60;10.90;;;;;;;10.00;100.00;-18297.16;4954600;28;20138;-83
2023/04/18 09:50:17;;;;;;;16.20;11.32;;;;;;;10.13;100.00;-18300.88;4952739;28;20534;-82
2023/04/18 09:52:44;;;;;;;14.57;10.75;;;;;;;10.26;100.00;-18304.16;4962695;28;20054;-82
2023/04/18 09:55:13;;;;;;;12.65;9.15;;;;;;;10.33;100.00;-18306.09;4966375;28;20043;-82
2023/04/18 09:57:41;;;;;;;15.38;10.27;;;;;;;10.43;100.00;-18308.84;4947107;28;20130;-82
2023/04/18 10:00:28;;;;;;;14.52;10.00;;;;;;;10.59;100.00;-18313.25;4967138;28;20066;-83
2023/04/18 10:03:06;;;;;;;13.63;10.05;;;;;;;10.61;100.00;-18313.78;4966498;28;20051;-83
2023/04/18 10:05:34;;;;;;;14.00;10.50;;;;;;;10.64;100.00;-18314.47;4949443;28;20043;-82
2023/04/18 10:08:00;;;;;;;15.23;10.18;;;;;;;10.78;100.00;-18318.19;4954272;28;20517;-83
2023/04/18 10:10:26;;;;;;;14.07;10.60;;;;;;;10.85;100.00;-18320.13;4952691;28;20046;-83
2023/04/18 10:12:59;;;;;;;15.57;10.48;;;;;;;10.89;100.00;-18321.06;4968255;28;20043;-83
2023/04/18 10:15:27;;;;;;;15.63;10.27;;;;;;;10.82;100.00;-18319.44;4952667;28;20611;-82
2023/04/18 10:18:00;;;;;;;14.10;10.77;;;;;;;10.86;100.00;-18320.25;4951681;28;20042;-82
2023/04/18 10:20:29;;;;;;;14.63;10.02;;;;;;;10.86;100.00;-18320.25;4950332;28;20040;-82
2023/04/18 10:22:55;;;;;;;;;;;;;;;10.83;100.00;-18319.69;4955179;28;20771;-82
2023/04/18 10:25:39;;;;;;;12.88;9.88;;;;;;;10.78;100.00;-18318.19;4953220;28;19929;-82
2023/04/18 10:28:06;;;;;;;15.38;10.75;;;;;;;10.84;100.00;-18319.84;4943666;28;20052;-82
2023/04/18 10:30:41;;;;;;;15.15;10.27;;;;;;;10.88;100.00;-18320.81;4951459;28;20057;-82
2023/04/18 10:33:29;;;;;;;15.02;10.85;;;;;;;11.15;100.00;-18328.22;4953015;28;20046;-82
2023/04/18 10:35:55;;;;;;;14.03;10.70;;;;;;;11.40;100.00;-18334.94;4935986;28;20058;-82
2023/04/18 10:38:22;;;;;;;13.05;10.73;;;;;;;11.53;100.00;-18338.50;4952849;28;20291;-82
2023/04/18 10:40:48;;;;;;;13.13;10.00;;;;;;;11.71;100.00;-18343.19;4953443;28;20054;-82
2023/04/18 10:43:13;;;;;;;13.65;11.48;;;;;;;11.70;100.00;-18343.03;4952130;28;20048;-82
2023/04/18 10:45:39;;;;;;;14.93;10.77;;;;;;;11.79;100.00;-18345.38;4953874;28;20073;-82
2023/04/18 10:48:33;;;;;;;13.70;11.40;;;;;;;11.98;100.00;-18350.31;4954702;28;20051;-82
2023/04/18 10:51:19;;;;;;;14.52;11.15;;;;;;;12.17;100.00;-18355.69;4953156;28;20043;-82
2023/04/18 10:53:55;;;;;;;16.75;12.60;;;;;;;12.32;100.00;-18359.53;4984992;28;21000;-82
2023/04/18 10:56:20;;;;;;;14.82;11.95;;;;;;;12.45;100.00;-18362.94;4967392;28;20039;-82
2023/04/18 10:58:50;;;;;;;15.23;11.82;;;;;;;12.58;100.00;-18366.66;4952627;28;20058;-82
2023/04/18 11:01:23;;;;;;;14.30;11.52;;;;;;;12.92;100.00;-18375.56;4953062;28;20043;-82
2023/04/18 11:03:50;;;;;;;13.38;11.57;;;;;;;13.20;100.00;-18383.09;4950840;28;20125;-82
2023/04/18 11:06:15;;;;;;;15.95;11.98;;;;;;;13.46;100.00;-18390.22;4953669;28;20047;-82
2023/04/18 11:08:40;;;;;;;15.88;12.15;;;;;;;13.56;100.00;-18392.69;4947241;28;20491;-82
2023/04/18 11:11:08;;;;;;;16.10;13.07;;;;;;;13.64;100.00;-18395.03;4949492;28;20106;-82